Rechercher aéroport 
image banner adimage banner adimage banner ad
image banner ad

21CA - Oxy Usa Inc Huntington Beach

Situé à Huntington Beach, United States

ICAO - 21CA, IATA -

Données fournies par Airmate  

Information générale

Coordonnées: N33°41'2" W118°1'54"
Élévation : 40 feet MSL.
Variation magnétique : 14° East
Voir autres Aéroports à California

Données opérationnelles

Special qualification required
Heure actuelle UTC:
Heure actuelle locale:
Météo à : KSLI - Los Alamitos Aaf ( 12 km )
METAR: KSLI 292058Z 28005KT 10SM FEW050 FEW250 31/17 A2987 RMK AO2A SLP118 T03100165 57015
TAF: TAF KSLI 292100Z 2921/3103 VRB03KT 9999 FEW250 QNH2991INS BECMG 3005/3006 VRB03KT 8000 BR BKN010 QNH2987INS BECMG 3016/3017 VRB03KT 9999 NSW FEW010 QNH2991INS TX29/2922Z TN17/3013Z
Voir NOTAMs / SUP AIP / TFR affectant cet aéroport [VIEW]
Fréquences de communication: [VIEW]

Pistes:

Coordonnées de l'aéroport

Adresse: Huntington Beach United States

Vue satellite de 21CA